createdAt,value
2024-04-18T00:02:44.945Z,97490.75
2024-04-18T00:06:09.499Z,97490.75
2024-04-18T00:09:15.389Z,97485.88
2024-04-18T00:12:20.992Z,97487.66
2024-04-18T00:15:24.536Z,97496.91
2024-04-18T00:18:38.152Z,97499.38
2024-04-18T00:22:19.001Z,97496.97
2024-04-18T00:25:24.569Z,97496.97
2024-04-18T00:28:32.469Z,97500.91
2024-04-18T00:31:53.486Z,97496.56
2024-04-18T00:35:14.272Z,97466.44
2024-04-18T00:38:17.270Z,97493.03
2024-04-18T00:41:26.324Z,97499.97
2024-04-18T00:44:34.908Z,97490.41
2024-04-18T00:47:54.020Z,97492.72
2024-04-18T00:50:59.560Z,97498.88
2024-04-18T00:54:06.117Z,97498.81
2024-04-18T00:57:11.997Z,97491.88
2024-04-18T01:00:18.281Z,97496.03
2024-04-18T01:03:30.382Z,97496.72
2024-04-18T01:06:47.877Z,97494.31
2024-04-18T01:09:51.045Z,97497.75
2024-04-18T01:13:03.438Z,97502.00
2024-04-18T01:16:24.921Z,97505.53
2024-04-18T01:19:30.268Z,97502.81
2024-04-18T01:22:35.516Z,97501.63
2024-04-18T01:25:41.005Z,97505.66
2024-04-18T01:28:49.542Z,97504.75
2024-04-18T01:32:07.850Z,97505.34
2024-04-18T01:35:13.602Z,97496.91
2024-04-18T01:38:25.070Z,97502.25
2024-04-18T01:41:27.992Z,97502.88
2024-04-18T01:44:42.311Z,97493.69
2024-04-18T01:48:07.263Z,97498.69
2024-04-18T01:51:32.936Z,97501.03
2024-04-18T01:54:38.445Z,97497.38
2024-04-18T01:57:42.289Z,97505.09
2024-04-18T02:01:08.893Z,97501.84
2024-04-18T02:04:11.837Z,97501.97
2024-04-18T02:07:17.239Z,97506.53
2024-04-18T02:10:38.603Z,97512.91
2024-04-18T02:13:44.464Z,97514.75
2024-04-18T02:16:52.664Z,97514.13
2024-04-18T02:20:09.116Z,97518.53
2024-04-18T02:23:18.727Z,97523.13
2024-04-18T02:26:32.379Z,97518.81
2024-04-18T02:29:35.067Z,97521.25
2024-04-18T02:32:43.307Z,97523.72
2024-04-18T02:35:52.004Z,97526.84
2024-04-18T02:39:16.594Z,97522.38
2024-04-18T02:42:22.558Z,97527.44
2024-04-18T02:45:34.398Z,97528.88
2024-04-18T02:49:01.252Z,97527.84
2024-04-18T02:52:07.921Z,97514.25
2024-04-18T02:55:19.925Z,97523.38
2024-04-18T02:58:34.484Z,97534.34
2024-04-18T03:01:52.467Z,97527.44
2024-04-18T03:05:00.988Z,97527.09
2024-04-18T03:08:04.606Z,97532.75
2024-04-18T03:11:25.012Z,97528.34
2024-04-18T03:14:48.598Z,97533.69
2024-04-18T03:17:55.168Z,97529.63
2024-04-18T03:21:27.001Z,97535.56
2024-04-18T03:24:52.599Z,97542.22
2024-04-18T03:28:03.037Z,97536.31
2024-04-18T03:34:16.204Z,97544.53
2024-04-18T03:37:29.511Z,97542.69
2024-04-18T03:40:35.552Z,97525.03
2024-04-18T03:43:43.118Z,97546.91
2024-04-18T03:46:48.745Z,97548.75
2024-04-18T03:50:14.943Z,97523.88
2024-04-18T03:53:17.726Z,97556.00
2024-04-18T03:56:23.302Z,97535.94
2024-04-18T03:59:26.218Z,97560.47
2024-04-18T04:02:31.832Z,97563.41
2024-04-18T04:05:37.695Z,97572.97
2024-04-18T04:08:43.375Z,97569.00
2024-04-18T04:11:48.034Z,97577.84
2024-04-18T04:14:53.260Z,97578.00
2024-04-18T04:17:56.338Z,97578.19
2024-04-18T04:21:23.604Z,97580.91
2024-04-18T04:24:27.148Z,97585.88
2024-04-18T04:28:12.835Z,97590.22
2024-04-18T04:31:18.412Z,97590.97
2024-04-18T04:34:23.982Z,97599.28
2024-04-18T04:37:32.237Z,97605.31
2024-04-18T04:40:35.416Z,97610.50
2024-04-18T04:43:41.647Z,97616.56
2024-04-18T04:46:50.605Z,97618.06
2024-04-18T04:49:56.105Z,97624.91
2024-04-18T04:53:19.529Z,97623.53
2024-04-18T04:56:40.485Z,97624.03
2024-04-18T05:00:06.859Z,97633.31
2024-04-18T05:03:50.384Z,97646.41
2024-04-18T05:07:35.135Z,97664.28
2024-04-18T05:11:01.839Z,97658.28
2024-04-18T05:14:08.256Z,97661.00
2024-04-18T05:17:29.043Z,97661.16
2024-04-18T05:20:53.305Z,97665.56
2024-04-18T05:23:56.223Z,97668.22
2024-04-18T05:27:05.379Z,97667.72
2024-04-18T05:30:27.506Z,97668.84
2024-04-18T05:33:33.703Z,97679.13
2024-04-18T05:36:39.940Z,97676.88
2024-04-18T05:39:46.178Z,97690.16
2024-04-18T05:42:54.476Z,97689.09
2024-04-18T05:46:20.345Z,97698.47
2024-04-18T05:49:26.357Z,97696.47
2024-04-18T05:52:31.909Z,97703.22
2024-04-18T05:55:57.409Z,97709.13
2024-04-18T05:59:05.609Z,97702.25
2024-04-18T06:02:13.510Z,97712.69
2024-04-18T06:05:21.654Z,97710.72
2024-04-18T06:08:45.834Z,97717.53
2024-04-18T06:11:51.489Z,97712.84
2024-04-18T06:15:02.477Z,97715.84
2024-04-18T06:18:08.607Z,97719.59
2024-04-18T06:21:14.277Z,97726.41
2024-04-18T06:24:22.904Z,97733.19
2024-04-18T06:27:28.881Z,97726.75
2024-04-18T06:30:37.245Z,97730.66
2024-04-18T06:33:43.296Z,97727.00
2024-04-18T06:36:49.102Z,97735.47
2024-04-18T06:39:55.012Z,97734.41
2024-04-18T06:43:00.738Z,97740.22
2024-04-18T06:46:09.112Z,97741.94
2024-04-18T06:49:14.456Z,97741.31
2024-04-18T06:52:20.245Z,97740.06
2024-04-18T06:55:26.197Z,97743.72
2024-04-18T06:58:32.919Z,97747.78
2024-04-18T07:01:40.670Z,97763.19
2024-04-18T07:04:47.043Z,97753.03
2024-04-18T07:07:55.581Z,97751.13
2024-04-18T07:11:10.643Z,97759.47
2024-04-18T07:14:17.109Z,97765.50
2024-04-18T07:17:45.777Z,97718.97
2024-04-18T07:20:52.028Z,97755.78
2024-04-18T07:24:01.243Z,97761.75
2024-04-18T07:27:19.540Z,97771.91
2024-04-18T07:30:25.312Z,97775.69
2024-04-18T07:33:34.541Z,97771.69
2024-04-18T07:36:54.549Z,97782.50
2024-04-18T07:40:02.340Z,97790.47
2024-04-18T07:43:08.078Z,97789.38
2024-04-18T07:46:15.165Z,97805.16
2024-04-18T07:49:24.188Z,97795.56
2024-04-18T07:52:29.566Z,97804.50
2024-04-18T07:55:35.393Z,97810.69
2024-04-18T07:58:41.650Z,97813.00
2024-04-18T08:01:49.085Z,97817.25
2024-04-18T08:05:01.785Z,97818.41
2024-04-18T08:08:12.221Z,97820.19
2024-04-18T08:11:52.482Z,97824.28
2024-04-18T08:14:48.435Z,97831.81
2024-04-18T08:17:57.772Z,97831.22
2024-04-18T08:21:06.270Z,97838.59
2024-04-18T08:24:20.085Z,97832.09
2024-04-18T08:27:25.810Z,97836.69
2024-04-18T08:30:56.779Z,97729.88
2024-04-18T08:34:35.945Z,97842.09
2024-04-18T08:38:23.605Z,97718.38
2024-04-18T08:42:00.031Z,97870.34
2024-04-18T08:46:02.074Z,97847.19
2024-04-18T08:49:25.529Z,97835.63
2024-04-18T08:52:59.065Z,97855.53
2024-04-18T08:56:44.908Z,97846.53
2024-04-18T09:00:15.961Z,97860.69
2024-04-18T09:03:38.355Z,97867.78
2024-04-18T09:07:33.508Z,97862.63
2024-04-18T09:11:15.663Z,97869.31
2024-04-18T09:15:06.468Z,97874.88
2024-04-18T09:18:27.855Z,97868.16
2024-04-18T09:21:45.447Z,97859.72
2024-04-18T09:25:09.974Z,97867.75
2024-04-18T09:28:38.109Z,97830.09
2024-04-18T09:34:30.173Z,97871.72
2024-04-18T09:41:54.565Z,97867.69
2024-04-18T09:45:48.477Z,97874.88
2024-04-18T09:49:51.250Z,97873.13
2024-04-18T09:53:25.578Z,97795.41
2024-04-18T09:56:48.193Z,97887.50
2024-04-18T10:00:20.366Z,97897.28
2024-04-18T10:05:39.588Z,97898.06
2024-04-18T10:14:05.664Z,97885.41
2024-04-18T10:17:25.353Z,97886.47
2024-04-18T10:20:34.185Z,97899.78
2024-04-18T10:23:42.100Z,97884.09
2024-04-18T10:26:48.038Z,97885.94
2024-04-18T10:30:01.076Z,97881.41
2024-04-18T10:33:10.348Z,97881.41
2024-04-18T10:36:18.007Z,97886.63
2024-04-18T10:39:32.477Z,97891.03
2024-04-18T10:42:41.116Z,97898.31
2024-04-18T10:45:51.691Z,97893.53
2024-04-18T10:48:58.526Z,97899.13
2024-04-18T10:52:09.386Z,97903.69
2024-04-18T10:55:15.095Z,97898.78
2024-04-18T10:58:20.852Z,97898.16
2024-04-18T11:01:32.696Z,97897.66
2024-04-18T11:04:38.475Z,97900.22
2024-04-18T11:07:44.357Z,97900.06
2024-04-18T11:10:50.370Z,97881.34
2024-04-18T11:13:56.349Z,97881.19
2024-04-18T11:17:04.770Z,97867.63
2024-04-18T11:20:13.076Z,97875.66
2024-04-18T11:23:18.522Z,97885.25
2024-04-18T11:26:29.591Z,97868.94
2024-04-18T11:29:36.044Z,97874.88
2024-04-18T11:32:44.293Z,97870.00
2024-04-18T11:35:50.500Z,97878.75
2024-04-18T11:38:56.090Z,97882.53
2024-04-18T11:42:01.686Z,97880.22
2024-04-18T11:45:08.858Z,97872.88
2024-04-18T11:48:17.363Z,97878.44
2024-04-18T11:51:23.086Z,97867.94
2024-04-18T11:54:29.269Z,97875.53
2024-04-18T11:57:37.779Z,97867.94
2024-04-18T12:00:43.556Z,97875.13
2024-04-18T12:03:52.205Z,97866.53
2024-04-18T12:07:12.140Z,97867.34
2024-04-18T12:10:18.209Z,97884.78
2024-04-18T12:13:41.695Z,97887.44
2024-04-18T12:17:02.313Z,97859.16
2024-04-18T12:20:23.963Z,97890.78
2024-04-18T12:23:33.803Z,97894.22
2024-04-18T12:26:46.570Z,97884.31
2024-04-18T12:29:53.331Z,97899.41
2024-04-18T12:32:59.243Z,97893.91
2024-04-18T12:36:11.182Z,97901.56
2024-04-18T12:39:17.550Z,97893.78
2024-04-18T12:42:23.197Z,97906.72
2024-04-18T12:45:31.883Z,97908.97
2024-04-18T12:48:50.398Z,97911.13
2024-04-18T12:52:19.128Z,97903.41
2024-04-18T12:55:56.352Z,97906.91
2024-04-18T12:59:02.109Z,97912.59
2024-04-18T13:02:23.485Z,97915.53
2024-04-18T13:05:33.498Z,97917.03
2024-04-18T13:08:47.665Z,97910.00
2024-04-18T13:12:13.324Z,97905.81
2024-04-18T13:15:37.822Z,97902.25
2024-04-18T13:18:49.751Z,97883.97
2024-04-18T13:22:15.375Z,97912.56
2024-04-18T13:25:23.821Z,97904.31
2024-04-18T13:28:49.351Z,97897.00
2024-04-18T13:31:55.148Z,97881.81
2024-04-18T13:35:00.889Z,97892.31
2024-04-18T13:38:06.746Z,97889.38
2024-04-18T13:41:38.056Z,97901.19
2024-04-18T13:44:57.741Z,97889.97
2024-04-18T13:48:23.618Z,97901.69
2024-04-18T13:51:29.461Z,97904.94
2024-04-18T13:54:34.883Z,97888.53
2024-04-18T13:57:43.238Z,97897.88
2024-04-18T14:01:03.035Z,97894.28
2024-04-18T14:04:11.638Z,97888.13
2024-04-18T14:07:21.308Z,97895.00
2024-04-18T14:10:27.132Z,97892.84
2024-04-18T14:13:53.976Z,97893.44
2024-04-18T14:17:24.277Z,97878.28
2024-04-18T14:20:48.684Z,97906.81
2024-04-18T14:23:54.303Z,97905.69
2024-04-18T14:26:59.906Z,97904.84
2024-04-18T14:30:09.425Z,97912.59
2024-04-18T14:33:15.311Z,97910.50
2024-04-18T14:36:20.789Z,97912.94
2024-04-18T14:39:26.439Z,97922.16
2024-04-18T14:42:44.026Z,97925.25
2024-04-18T14:45:52.617Z,97944.31
2024-04-18T14:49:03.076Z,97951.31
2024-04-18T14:52:09.235Z,97957.84
2024-04-18T14:55:14.867Z,97963.28
2024-04-18T14:58:21.096Z,97964.56
2024-04-18T15:01:29.932Z,97973.19
2024-04-18T15:04:35.528Z,97977.22
2024-04-18T15:08:00.433Z,97980.78
2024-04-18T15:11:25.831Z,97932.13
2024-04-18T15:14:41.099Z,97980.81
2024-04-18T15:17:49.330Z,97971.09
2024-04-18T15:20:56.274Z,97961.25
2024-04-18T15:24:17.275Z,97964.44
2024-04-18T15:27:40.992Z,97971.56
2024-04-18T15:34:15.756Z,97973.25
2024-04-18T15:37:33.987Z,97980.94
2024-04-18T15:40:39.490Z,97971.81
2024-04-18T15:43:47.399Z,97974.88
2024-04-18T15:47:13.484Z,97963.00
2024-04-18T15:50:28.132Z,97979.59
2024-04-18T15:53:34.377Z,97984.97
2024-04-18T15:56:46.712Z,97977.59
2024-04-18T16:00:19.036Z,97987.31
2024-04-18T16:03:26.934Z,97986.63
2024-04-18T16:06:35.504Z,97992.03
2024-04-18T16:09:53.143Z,97989.91
2024-04-18T16:13:01.429Z,97999.44
2024-04-18T16:16:08.113Z,97982.16
2024-04-18T16:19:16.435Z,98010.38
2024-04-18T16:22:43.249Z,97997.97
2024-04-18T16:26:07.160Z,98011.88
2024-04-18T16:29:12.796Z,97941.91
2024-04-18T16:32:18.577Z,98023.91
2024-04-18T16:35:30.501Z,98023.47
2024-04-18T16:38:54.176Z,98020.88
2024-04-18T16:42:02.667Z,98016.41
2024-04-18T16:45:09.073Z,98019.91
2024-04-18T16:48:14.874Z,98027.97
2024-04-18T16:51:20.538Z,98010.53
2024-04-18T16:54:34.419Z,98031.00
2024-04-18T16:57:41.094Z,98039.41
2024-04-18T17:01:00.946Z,98039.53
2024-04-18T17:04:07.604Z,98044.44
2024-04-18T17:07:13.506Z,98013.75
2024-04-18T17:10:40.601Z,98050.44
2024-04-18T17:14:05.003Z,98056.81
2024-04-18T17:17:10.711Z,98057.94
2024-04-18T17:20:36.739Z,98052.41
2024-04-18T17:23:42.732Z,98060.25
2024-04-18T17:26:51.738Z,98060.38
2024-04-18T17:29:57.233Z,98061.66
2024-04-18T17:33:03.033Z,98055.06
2024-04-18T17:36:28.760Z,98063.34
2024-04-18T17:39:34.132Z,98056.00
2024-04-18T17:42:42.485Z,98054.63
2024-04-18T17:45:48.456Z,98072.03
2024-04-18T17:48:56.033Z,98076.66
2024-04-18T17:52:01.691Z,98079.38
2024-04-18T17:55:10.226Z,98090.03
2024-04-18T17:58:18.532Z,98085.97
2024-04-18T18:01:24.050Z,98093.19
2024-04-18T18:04:47.484Z,98099.31
2024-04-18T18:07:52.995Z,98098.72
2024-04-18T18:11:18.760Z,98105.97
2024-04-18T18:14:26.859Z,98105.97
2024-04-18T18:17:40.257Z,98117.06
2024-04-18T18:20:46.825Z,98124.72
2024-04-18T18:23:52.287Z,98125.50
2024-04-18T18:27:13.115Z,98126.53
2024-04-18T18:30:18.976Z,98132.22
2024-04-18T18:33:24.528Z,98127.56
2024-04-18T18:36:27.466Z,98129.16
2024-04-18T18:39:33.054Z,98127.84
2024-04-18T18:42:36.027Z,98127.47
2024-04-18T18:45:44.263Z,98133.38
2024-04-18T18:48:47.353Z,98128.25
2024-04-18T18:51:53.449Z,98137.03
2024-04-18T18:54:56.449Z,98137.75
2024-04-18T18:58:02.020Z,98139.88
2024-04-18T19:01:13.302Z,98115.97
2024-04-18T19:04:19.175Z,98154.34
2024-04-18T19:07:25.022Z,98163.72
2024-04-18T19:10:28.307Z,98151.66
2024-04-18T19:13:34.287Z,98157.19
2024-04-18T19:16:42.539Z,98165.97
2024-04-18T19:19:46.000Z,98167.91
2024-04-18T19:22:51.327Z,98165.44
2024-04-18T19:25:54.260Z,98157.88
2024-04-18T19:28:59.938Z,98162.03
2024-04-18T19:32:08.708Z,98162.63
2024-04-18T19:35:14.955Z,98166.59
2024-04-18T19:38:24.182Z,98173.47
2024-04-18T19:41:29.739Z,98181.03
2024-04-18T19:44:32.715Z,98173.22
2024-04-18T19:47:42.486Z,98170.16
2024-04-18T19:50:45.128Z,98182.00
2024-04-18T19:54:02.881Z,98186.69
2024-04-18T19:57:06.888Z,98182.34
2024-04-18T20:00:14.411Z,98189.38
2024-04-18T20:03:20.009Z,98179.50
2024-04-18T20:06:25.638Z,98148.63
2024-04-18T20:09:30.766Z,98172.22
2024-04-18T20:12:36.319Z,98174.97
2024-04-18T20:15:45.136Z,98173.47
2024-04-18T20:18:53.454Z,98185.66
2024-04-18T20:21:56.490Z,98191.69
2024-04-18T20:25:02.042Z,98188.88
2024-04-18T20:28:19.402Z,98192.41
2024-04-18T20:31:23.158Z,98195.41
2024-04-18T20:34:31.564Z,98201.34
2024-04-18T20:37:34.699Z,98200.75
2024-04-18T20:40:41.183Z,98213.59
2024-04-18T20:43:44.449Z,98209.63
2024-04-18T20:46:50.131Z,98208.16
2024-04-18T20:49:55.606Z,98208.22
2024-04-18T20:53:01.109Z,98203.78
2024-04-18T20:56:06.718Z,98193.34
2024-04-18T20:59:09.740Z,98197.28
2024-04-18T21:02:15.325Z,98189.97
2024-04-18T21:05:20.480Z,98188.81
2024-04-18T21:08:26.037Z,98189.75
2024-04-18T21:11:31.530Z,98188.72
2024-04-18T21:14:41.523Z,98188.56
2024-04-18T21:17:47.272Z,98192.28
2024-04-18T21:20:53.314Z,98175.00
2024-04-18T21:23:58.882Z,98187.63
2024-04-18T21:27:04.598Z,98190.41
2024-04-18T21:34:15.468Z,98189.00
2024-04-18T21:37:21.147Z,98185.25
2024-04-18T21:40:26.651Z,98186.53
2024-04-18T21:43:32.132Z,98181.97
2024-04-18T21:46:54.974Z,98185.22
2024-04-18T21:50:03.063Z,98175.78
2024-04-18T21:53:05.794Z,98184.38
2024-04-18T21:56:12.628Z,98181.69
2024-04-18T21:59:16.393Z,98182.69
2024-04-18T22:02:21.900Z,98175.44
2024-04-18T22:05:27.439Z,98169.72
2024-04-18T22:08:33.162Z,98174.59
2024-04-18T22:11:36.232Z,98168.25
2024-04-18T22:14:41.451Z,98173.88
2024-04-18T22:17:44.363Z,98165.03
2024-04-18T22:20:52.487Z,98165.13
2024-04-18T22:23:55.238Z,98165.38
2024-04-18T22:27:00.887Z,98161.25
2024-04-18T22:30:06.738Z,98161.25
2024-04-18T22:33:09.843Z,98166.22
2024-04-18T22:36:18.137Z,98164.25
2024-04-18T22:39:21.620Z,98167.47
2024-04-18T22:42:27.234Z,98162.94
2024-04-18T22:45:32.602Z,98155.63
2024-04-18T22:48:35.606Z,98166.13
2024-04-18T22:51:46.298Z,98171.28
2024-04-18T22:54:50.560Z,98171.16
2024-04-18T22:58:01.261Z,98168.47
2024-04-18T23:01:05.810Z,98158.22
2024-04-18T23:04:13.009Z,98164.94
2024-04-18T23:07:19.294Z,98164.09
2024-04-18T23:10:24.774Z,98158.53
2024-04-18T23:13:30.321Z,98123.47
2024-04-18T23:16:33.156Z,98157.19
2024-04-18T23:19:38.695Z,98154.00
2024-04-18T23:22:44.172Z,98162.88
2024-04-18T23:26:09.462Z,98163.53
2024-04-18T23:29:15.145Z,98161.25
2024-04-18T23:32:18.032Z,98151.59
2024-04-18T23:35:23.665Z,98148.00
2024-04-18T23:38:29.200Z,98140.91
2024-04-18T23:41:34.957Z,98139.84
2024-04-18T23:44:40.376Z,98133.75
2024-04-18T23:47:43.327Z,98083.72
2024-04-18T23:50:49.476Z,98111.38
2024-04-18T23:53:55.163Z,98124.94
2024-04-18T23:57:00.736Z,98107.78
